ADDS METAR Data INFO
IDs: Format: Raw Decoded Include TAF

Data at: 1517 UTC 11 Dec 2017

KSHV 111456Z 24003KT 10SM SCT250 09/01 A3025 RMK AO2 SLP243 T00890011 50005
KSHV 111356Z 00000KT 10SM SCT280 03/01 A3025 RMK AO2 SLP244 T00280006
KSHV 111256Z 00000KT 10SM FEW280 02/M01 A3024 RMK AO2 SLP239 T00171011
KSHV 111156Z 00000KT 10SM CLR 02/M01 A3023 RMK AO2 SLP238 T00171011 10072 20017 58005 $
KSHV 111056Z 24003KT 10SM CLR 04/M01 A3024 RMK AO2 SLP240 T00441006 $
KSHV 110956Z 24003KT 10SM CLR 06/M01 A3025 RMK AO2 SLP243 T00561006 $
KSHV 110856Z 26003KT 10SM CLR 05/M01 A3025 RMK AO2 SLP242 T00501006 55005 $
KSHV 110756Z 25005KT 10SM CLR 06/00 A3025 RMK AO2 SLP240 T00610000 $
KSHV 110656Z 25005KT 10SM CLR 07/00 A3026 RMK AO2 SLP245 T00670000 $
KSHV 110556Z 24007KT 10SM CLR 07/M01 A3026 RMK AO2 SLP247 T00721006 10117 20067 401831028 56004 $
KSHV 110456Z 23004KT 10SM CLR 08/M01 A3026 RMK AO2 SLP248 T00781011 $
KSHV 110356Z 23005KT 10SM CLR 09/M01 A3027 RMK AO2 SLP250 T00891011 $
KSHV 110256Z 23006KT 10SM CLR 08/M02 A3028 RMK AO2 SLP252 T00831017 58001 $
KSHV 110156Z 22003KT 10SM CLR 09/M02 A3028 RMK AO2 SLP255 T00941017 $
KSHV 110056Z 22004KT 10SM CLR 10/M02 A3028 RMK AO2 SLP255 T01001022 $
KSHV 102356Z 20006KT 10SM FEW260 12/M02 A3028 RMK AO2 SLP254 T01171022 10183 20117 56002 $
KSHV 102256Z 23006KT 10SM FEW280 15/M03 A3028 RMK AO2 SLP254 T01501028 $
KSHV 102156Z 24009KT 10SM FEW280 18/M03 A3028 RMK AO2 SLP252 T01781028 $
KSHV 102056Z 24011KT 10SM FEW280 18/M03 A3029 RMK AO2 SLP255 T01781033 56025 $
KSHV 101956Z 29012KT 10SM FEW280 18/M03 A3031 RMK AO2 SLP263 T01781028 $
KSHV 101856Z VRB05KT 10SM FEW280 17/M03 A3033 RMK AO2 SLP271 T01671028 $
KSHV 101756Z 26007KT 10SM CLR 15/M03 A3036 RMK AO2 SLP281 T01501028 10156 21028 58013 $
KSHV 101656Z 23009KT 10SM CLR 13/M02 A3040 RMK AO2 SLP293 T01331017 $
KSHV 101556Z 22005KT 10SM CLR 10/M01 A3041 RMK AO2 SLP296 T01001006 $
KSHV 101456Z 24003KT 10SM CLR 04/01 A3040 RMK AO2 SLP294 T00440006 53015 $
KSHV 101356Z 00000KT 10SM FEW060 M01/M02 A3038 RMK AO2 SLP289 T10061022 $
KSHV 101256Z 00000KT 10SM FEW060 FEW250 M02/M03 A3037 RMK AO2 SLP285 T10221033 $
KSHV 101156Z 25004KT 10SM CLR M03/M04 A3035 RMK AO2 SLP279 T10281039 10022 21028 53004 $
KSHV 101056Z 00000KT 10SM CLR M01/M03 A3034 RMK AO2 SLP274 T10111033 $
KSHV 100956Z 00000KT 10SM CLR M02/M03 A3035 RMK AO2 SLP277 T10171028 $
KSHV 100856Z 00000KT 10SM CLR M01/M03 A3034 RMK AO2 SLP275 T10061028 50001 $
KSHV 100756Z 00000KT 10SM CLR 00/M03 A3035 RMK AO2 SLP276 T00001028 $
KSHV 100656Z 00000KT 10SM CLR 01/M03 A3035 RMK AO2 SLP276 T00061028 $
KSHV 100556Z 27003KT 10SM CLR 01/M02 A3034 RMK AO2 SLP273 T00111022 10094 20011 401501050 51020 $
KSHV 100456Z 25004KT 10SM CLR 02/M02 A3033 RMK AO2 SLP270 T00171022 $
KSHV 100356Z 31004KT 10SM CLR 06/M02 A3030 RMK AO2 SLP260 T00561022 $